Terminal Aerodrome Forecast
Issued by NWS Wilmington, OH

Current Version | Previous Version | Graphics & Text | Print | Product List | Glossary On
Versions: 1 2 3 4 5 6 7 8 9 10 11 12 13 14 15 16 17 18 19 20 21 22 23 24 25 26 27 28 29 30 31 32 33 34
000
FTUS41 KILN 030528
TAFCVG
TAF
KCVG 030528Z 0306/0412 34004KT P6SM SCT035 BKN120
      TEMPO 0309/0313 BKN025
     FM031400 35005KT P6SM SCT012 OVC035
     FM031900 32006KT P6SM BKN040
     FM040600 28005KT P6SM SCT040 SCT100
     FM040900 23004KT P6SM SCT040 BKN150=

USA.gov is the U.S. government's official web portal to all federal, state and local government web resources and services.